Aviation Digital Data Service (ADDS)

Output produced by TAFs form (2024 UTC 20 July 2017)
found at http://www.aviationweather.gov/adds/tafs/
 
METAR text: ZYTL 202000Z 01007MPS 330V040 8000 SCT033 26/23 Q1004 BECMG TL2130 -TSRA
Conditions at: ZYTL (DALIAN/DAIREN/LU, CN) observed 2000 UTC 20 July 2017
Temperature: 26.0°C (79°F)
Dewpoint: 23.0°C (73°F) [RH = 84%]
Pressure (altimeter): 29.65 inches Hg (1004.0 mb)
Winds: from the N (10 degrees) at 16 MPH (14 knots; 7.3 m/s)
Visibility: 5 miles (8 km)
Ceiling: at least 12,000 feet AGL
Clouds: scattered clouds at 3300 feet AGL
Weather: no significant weather observed at this time

Forecast for: ZYTL (DALIAN/DAIREN/LU, CN)
Text: TAF ZYTL 201508Z 2018/2118 36004MPS 6000 SCT033 TX31/2106Z TN25/2020Z
Forecast period: 1800 UTC 20 July 2017 to 1800 UTC 21 July 2017
Forecast type: FROM: standard forecast or significant change
Winds: from the N (360 degrees) at 9 MPH (8 knots; 4.2 m/s)
Visibility: 4 miles (6 km)
Clouds: scattered clouds at 3300 feet AGL
Weather: no significant weather forecast for this period
Text: TEMPO 2018/2024 -TSRA SCT010 BKN026 FEW033CB
Forecast period: 1800 UTC 20 July 2017 to 0000 UTC 21 July 2017
Forecast type: TEMPORARY: The following changes expected for less than half the time period
Ceiling: 2600 feet AGL
Clouds: scattered clouds at 1000 feet AGL
broken clouds at 2600 feet AGL
few clouds at 3300 feet AGL
Weather: -TSRA  (light rain associated with thunderstorm(s))